CSH9102 ZBAD-ZSSS
Flight info
| Callsign | CSH9102 |
|---|---|
| Flight time | 1h 28m |
| Altitude | 37100 |
| Route | ELKUR4K ELKUR W40 YQG/K0826S1160 W142 DALIM/K0822S1130 A593 DPX A470 DALNU W166 ZJ W167 SASAN SAS61A |
| Aircraft | B738/M-SDE2E3FGHIRWXY/LB1 |
Departure
| Time | 2026-04-27 15:09 |
|---|---|
| Airport | Beijing Daxing International Airport (ZBAD) |
Arrival
| Time | 2026-04-27 16:37 |
|---|---|
| Airport | Shanghai Hongqiao International Airport (ZSSS) |
| Time | Latitude | Longitude | Altitude | Speed | Heading |
|---|---|---|---|---|---|
| 2026-04-27 14:38 | 39.50925 | 116.41613 | 91 ft | 0 kts | 192° |
| 2026-04-27 14:57 | 39.50936 | 116.41616 | 91 ft | 2 kts | 192° |
| 2026-04-27 14:58 | 39.50951 | 116.41621 | 91 ft | 2 kts | 199° |
| 2026-04-27 14:58 | 39.50964 | 116.41628 | 91 ft | 2 kts | 209° |
| 2026-04-27 14:58 | 39.50977 | 116.41639 | 91 ft | 2 kts | 219° |
| 2026-04-27 14:58 | 39.50988 | 116.41652 | 91 ft | 2 kts | 229° |
| 2026-04-27 14:59 | 39.50997 | 116.41668 | 91 ft | 2 kts | 239° |
| 2026-04-27 14:59 | 39.51004 | 116.41685 | 91 ft | 2 kts | 249° |
| 2026-04-27 14:59 | 39.51008 | 116.41704 | 91 ft | 2 kts | 258° |
| 2026-04-27 14:59 | 39.51010 | 116.41722 | 91 ft | 2 kts | 268° |
| 2026-04-27 15:00 | 39.51010 | 116.41735 | 91 ft | 0 kts | 274° |
| 2026-04-27 15:00 | 39.51009 | 116.41742 | 91 ft | 0 kts | 276° |
| 2026-04-27 15:01 | 39.51010 | 116.41739 | 91 ft | 1 kts | 276° |
| 2026-04-27 15:02 | 39.51014 | 116.41685 | 91 ft | 6 kts | 275° |
| 2026-04-27 15:02 | 39.51017 | 116.41652 | 91 ft | 0 kts | 276° |
| 2026-04-27 15:02 | 39.51017 | 116.41650 | 91 ft | 1 kts | 276° |
| 2026-04-27 15:03 | 39.51045 | 116.41583 | 91 ft | 12 kts | 331° |
| 2026-04-27 15:03 | 39.51106 | 116.41626 | 91 ft | 13 kts | 58° |
| 2026-04-27 15:03 | 39.51144 | 116.41746 | 91 ft | 13 kts | 73° |
| 2026-04-27 15:03 | 39.51159 | 116.41866 | 91 ft | 13 kts | 82° |
| 2026-04-27 15:04 | 39.51170 | 116.41988 | 91 ft | 14 kts | 84° |
| 2026-04-27 15:04 | 39.51183 | 116.42120 | 91 ft | 16 kts | 86° |
| 2026-04-27 15:04 | 39.51178 | 116.42269 | 91 ft | 19 kts | 82° |
| 2026-04-27 15:04 | 39.51195 | 116.42448 | 91 ft | 20 kts | 82° |
| 2026-04-27 15:05 | 39.51217 | 116.42612 | 91 ft | 13 kts | 56° |
| 2026-04-27 15:05 | 39.51294 | 116.42628 | 91 ft | 11 kts | 352° |
| 2026-04-27 15:05 | 39.51370 | 116.42615 | 91 ft | 12 kts | 352° |
| 2026-04-27 15:05 | 39.51453 | 116.42638 | 91 ft | 14 kts | 60° |
| 2026-04-27 15:06 | 39.51469 | 116.42768 | 91 ft | 14 kts | 83° |
| 2026-04-27 15:06 | 39.51482 | 116.42897 | 91 ft | 14 kts | 83° |
| 2026-04-27 15:06 | 39.51494 | 116.43029 | 91 ft | 15 kts | 82° |
| 2026-04-27 15:06 | 39.51557 | 116.43105 | 91 ft | 10 kts | 10° |
| 2026-04-27 15:07 | 39.51568 | 116.43108 | 91 ft | 0 kts | 12° |
| 2026-04-27 15:07 | 39.51575 | 116.43110 | 91 ft | 2 kts | 12° |
| 2026-04-27 15:08 | 39.51609 | 116.43120 | 91 ft | 10 kts | 13° |
| 2026-04-27 15:08 | 39.51654 | 116.43201 | 91 ft | 12 kts | 99° |
| 2026-04-27 15:08 | 39.51636 | 116.43317 | 91 ft | 17 kts | 102° |
| 2026-04-27 15:08 | 39.51555 | 116.43763 | 91 ft | 88 kts | 103° |
| 2026-04-27 15:09 | 39.51364 | 116.44832 | 93 ft | 151 kts | 101° |
| 2026-04-27 15:09 | 39.51151 | 116.46255 | 574 ft | 163 kts | 102° |
| 2026-04-27 15:09 | 39.50949 | 116.47667 | 1374 ft | 164 kts | 99° |
| 2026-04-27 15:09 | 39.50724 | 116.49087 | 2132 ft | 160 kts | 101° |
| 2026-04-27 15:10 | 39.50445 | 116.50542 | 2506 ft | 176 kts | 100° |
| 2026-04-27 15:10 | 39.50147 | 116.52139 | 2877 ft | 192 kts | 100° |
| 2026-04-27 15:10 | 39.49820 | 116.53892 | 3306 ft | 207 kts | 99° |
| 2026-04-27 15:10 | 39.49466 | 116.55779 | 3674 ft | 225 kts | 99° |
| 2026-04-27 15:11 | 39.49089 | 116.57807 | 4109 ft | 242 kts | 99° |
| 2026-04-27 15:11 | 39.48675 | 116.60010 | 4522 ft | 259 kts | 99° |
| 2026-04-27 15:11 | 39.48238 | 116.62337 | 4943 ft | 274 kts | 99° |
| 2026-04-27 15:11 | 39.47797 | 116.64808 | 4929 ft | 283 kts | 98° |
| 2026-04-27 15:12 | 39.47429 | 116.67272 | 4954 ft | 274 kts | 97° |
| 2026-04-27 15:12 | 39.47084 | 116.69672 | 4958 ft | 270 kts | 97° |
| 2026-04-27 15:12 | 39.46734 | 116.72064 | 4960 ft | 269 kts | 97° |
| 2026-04-27 15:12 | 39.46349 | 116.74451 | 4956 ft | 272 kts | 103° |
| 2026-04-27 15:13 | 39.45568 | 116.76666 | 4949 ft | 277 kts | 124° |
| 2026-04-27 15:13 | 39.44093 | 116.78371 | 5150 ft | 294 kts | 149° |
| 2026-04-27 15:13 | 39.42281 | 116.79439 | 6064 ft | 289 kts | 158° |
| 2026-04-27 15:13 | 39.40395 | 116.80405 | 6787 ft | 294 kts | 158° |
| 2026-04-27 15:14 | 39.38456 | 116.81391 | 7486 ft | 300 kts | 159° |
| 2026-04-27 15:14 | 39.36504 | 116.82384 | 8182 ft | 305 kts | 160° |
| 2026-04-27 15:14 | 39.34515 | 116.83393 | 8835 ft | 312 kts | 161° |
| 2026-04-27 15:14 | 39.32497 | 116.84412 | 9627 ft | 314 kts | 161° |
| 2026-04-27 15:15 | 39.30456 | 116.85445 | 10373 ft | 319 kts | 162° |
| 2026-04-27 15:15 | 39.28327 | 116.86518 | 10803 ft | 336 kts | 163° |
| 2026-04-27 15:15 | 39.26099 | 116.87637 | 11251 ft | 351 kts | 162° |
| 2026-04-27 15:15 | 39.23772 | 116.88810 | 11709 ft | 365 kts | 162° |
| 2026-04-27 15:16 | 39.21336 | 116.90039 | 12177 ft | 380 kts | 162° |
| 2026-04-27 15:16 | 39.18853 | 116.91290 | 12834 ft | 388 kts | 163° |
| 2026-04-27 15:16 | 39.16336 | 116.92561 | 13637 ft | 392 kts | 163° |
| 2026-04-27 15:16 | 39.13794 | 116.93838 | 14443 ft | 395 kts | 163° |
| 2026-04-27 15:17 | 39.11196 | 116.95142 | 15111 ft | 403 kts | 163° |
| 2026-04-27 15:17 | 39.08590 | 116.96457 | 15887 ft | 407 kts | 164° |
| 2026-04-27 15:17 | 39.05959 | 116.97782 | 16651 ft | 410 kts | 164° |
| 2026-04-27 15:17 | 39.03251 | 116.99143 | 17130 ft | 421 kts | 165° |
| 2026-04-27 15:18 | 39.00553 | 117.00500 | 17924 ft | 422 kts | 165° |
| 2026-04-27 15:18 | 38.97777 | 117.01885 | 18580 ft | 427 kts | 166° |
| 2026-04-27 15:18 | 38.95005 | 117.03270 | 19174 ft | 433 kts | 166° |
| 2026-04-27 15:18 | 38.92178 | 117.04369 | 19893 ft | 419 kts | 181° |
| 2026-04-27 15:19 | 38.89333 | 117.04283 | 20455 ft | 395 kts | 205° |
| 2026-04-27 15:19 | 38.86852 | 117.03060 | 21176 ft | 377 kts | 218° |
| 2026-04-27 15:19 | 38.84530 | 117.01494 | 21916 ft | 373 kts | 220° |
| 2026-04-27 15:19 | 38.82212 | 116.99978 | 22444 ft | 381 kts | 217° |
| 2026-04-27 15:20 | 38.79884 | 116.98434 | 23081 ft | 375 kts | 223° |
| 2026-04-27 15:20 | 38.77864 | 116.96470 | 23774 ft | 356 kts | 234° |
| 2026-04-27 15:20 | 38.76220 | 116.94110 | 24205 ft | 353 kts | 242° |
| 2026-04-27 15:20 | 38.74761 | 116.91673 | 24902 ft | 348 kts | 244° |
| 2026-04-27 15:21 | 38.73474 | 116.89067 | 25399 ft | 345 kts | 249° |
| 2026-04-27 15:21 | 38.72337 | 116.86365 | 25978 ft | 345 kts | 250° |
| 2026-04-27 15:21 | 38.71202 | 116.83633 | 26333 ft | 352 kts | 249° |
| 2026-04-27 15:21 | 38.70041 | 116.80893 | 27049 ft | 348 kts | 250° |
| 2026-04-27 15:22 | 38.68867 | 116.78145 | 27293 ft | 357 kts | 249° |
| 2026-04-27 15:22 | 38.67564 | 116.75486 | 27995 ft | 357 kts | 245° |
| 2026-04-27 15:22 | 38.65949 | 116.72975 | 28343 ft | 373 kts | 236° |
| 2026-04-27 15:22 | 38.63971 | 116.70796 | 28899 ft | 381 kts | 230° |
| 2026-04-27 15:23 | 38.61800 | 116.68767 | 29198 ft | 394 kts | 225° |
| 2026-04-27 15:23 | 38.59356 | 116.67164 | 29826 ft | 408 kts | 215° |
| 2026-04-27 15:23 | 38.56593 | 116.66048 | 30129 ft | 425 kts | 209° |
| 2026-04-27 15:23 | 38.53633 | 116.65299 | 30343 ft | 442 kts | 202° |
| 2026-04-27 15:24 | 38.50593 | 116.64875 | 31208 ft | 437 kts | 200° |
| 2026-04-27 15:24 | 38.47549 | 116.64547 | 31732 ft | 436 kts | 200° |
| 2026-04-27 15:24 | 38.44559 | 116.64232 | 32105 ft | 437 kts | 200° |
| 2026-04-27 15:24 | 38.41524 | 116.63899 | 32613 ft | 433 kts | 200° |
| 2026-04-27 15:25 | 38.38538 | 116.63573 | 33172 ft | 429 kts | 201° |
| 2026-04-27 15:25 | 38.35577 | 116.63247 | 33838 ft | 422 kts | 202° |
| 2026-04-27 15:25 | 38.32642 | 116.62980 | 34086 ft | 431 kts | 199° |
| 2026-04-27 15:25 | 38.29585 | 116.62997 | 34277 ft | 451 kts | 191° |
| 2026-04-27 15:26 | 38.26415 | 116.63632 | 34726 ft | 468 kts | 184° |
| 2026-04-27 15:26 | 38.23273 | 116.64640 | 35371 ft | 468 kts | 180° |
| 2026-04-27 15:26 | 38.20157 | 116.65781 | 35827 ft | 468 kts | 180° |
| 2026-04-27 15:26 | 38.17023 | 116.66969 | 36264 ft | 467 kts | 180° |
| 2026-04-27 15:27 | 38.13941 | 116.68126 | 36653 ft | 465 kts | 181° |
| 2026-04-27 15:27 | 38.10834 | 116.69286 | 37087 ft | 463 kts | 181° |
| 2026-04-27 15:27 | 38.07760 | 116.70428 | 37205 ft | 465 kts | 181° |
| 2026-04-27 15:27 | 38.04642 | 116.71584 | 37215 ft | 470 kts | 181° |
| 2026-04-27 15:28 | 37.98362 | 116.73985 | 37201 ft | 472 kts | 181° |
| 2026-04-27 15:28 | 37.92033 | 116.76412 | 37184 ft | 475 kts | 181° |
| 2026-04-27 15:29 | 37.85738 | 116.78813 | 37193 ft | 472 kts | 180° |
| 2026-04-27 15:29 | 37.79580 | 116.81187 | 37206 ft | 455 kts | 181° |
| 2026-04-27 15:30 | 37.73522 | 116.83460 | 37189 ft | 457 kts | 181° |
| 2026-04-27 15:30 | 37.67339 | 116.85770 | 37206 ft | 467 kts | 181° |
| 2026-04-27 15:31 | 37.61057 | 116.88112 | 37184 ft | 477 kts | 179° |
| 2026-04-27 15:31 | 37.54684 | 116.90514 | 37193 ft | 482 kts | 179° |
| 2026-04-27 15:32 | 37.48262 | 116.92939 | 37184 ft | 484 kts | 179° |
| 2026-04-27 15:32 | 37.41869 | 116.95334 | 37200 ft | 476 kts | 180° |
| 2026-04-27 15:33 | 37.35519 | 116.97739 | 37199 ft | 476 kts | 178° |
| 2026-04-27 15:33 | 37.29150 | 117.00115 | 37205 ft | 487 kts | 178° |
| 2026-04-27 15:34 | 37.22713 | 117.02966 | 37194 ft | 490 kts | 173° |
| 2026-04-27 15:34 | 37.16357 | 117.06060 | 37191 ft | 493 kts | 173° |
| 2026-04-27 15:35 | 37.09904 | 117.09081 | 37191 ft | 498 kts | 173° |
| 2026-04-27 15:35 | 37.03482 | 117.12107 | 37189 ft | 489 kts | 172° |
| 2026-04-27 15:36 | 36.97143 | 117.15092 | 37191 ft | 489 kts | 172° |
| 2026-04-27 15:36 | 36.90710 | 117.18045 | 37187 ft | 496 kts | 173° |
| 2026-04-27 15:37 | 36.84243 | 117.20798 | 37180 ft | 484 kts | 180° |
| 2026-04-27 15:37 | 36.81008 | 117.21484 | 37179 ft | 459 kts | 190° |
| 2026-04-27 15:37 | 36.77852 | 117.21661 | 37181 ft | 449 kts | 195° |
| 2026-04-27 15:38 | 36.71603 | 117.21587 | 37171 ft | 451 kts | 196° |
| 2026-04-27 15:38 | 36.65318 | 117.21484 | 37174 ft | 454 kts | 195° |
| 2026-04-27 15:39 | 36.59068 | 117.21445 | 37168 ft | 444 kts | 195° |
| 2026-04-27 15:39 | 36.52838 | 117.21378 | 37173 ft | 452 kts | 195° |
| 2026-04-27 15:40 | 36.46503 | 117.21308 | 37176 ft | 456 kts | 194° |
| 2026-04-27 15:40 | 36.40113 | 117.22136 | 37172 ft | 472 kts | 182° |
| 2026-04-27 15:41 | 36.36886 | 117.23086 | 37172 ft | 485 kts | 177° |
| 2026-04-27 15:41 | 36.33609 | 117.24250 | 37162 ft | 490 kts | 176° |
| 2026-04-27 15:41 | 36.27163 | 117.26697 | 37161 ft | 483 kts | 176° |
| 2026-04-27 15:42 | 36.20705 | 117.29121 | 37159 ft | 492 kts | 175° |
| 2026-04-27 15:42 | 36.14153 | 117.31533 | 37152 ft | 482 kts | 176° |
| 2026-04-27 15:43 | 36.07761 | 117.33875 | 37161 ft | 483 kts | 176° |
| 2026-04-27 15:43 | 36.01273 | 117.36261 | 37149 ft | 491 kts | 175° |
| 2026-04-27 15:44 | 35.94776 | 117.38718 | 37149 ft | 488 kts | 174° |
| 2026-04-27 15:44 | 35.88398 | 117.41153 | 37150 ft | 476 kts | 176° |
| 2026-04-27 15:45 | 35.82005 | 117.43493 | 37151 ft | 483 kts | 175° |
| 2026-04-27 15:45 | 35.75554 | 117.45927 | 37153 ft | 489 kts | 175° |
| 2026-04-27 15:46 | 35.69105 | 117.48357 | 37146 ft | 483 kts | 174° |
| 2026-04-27 15:46 | 35.62655 | 117.50751 | 37149 ft | 485 kts | 175° |
| 2026-04-27 15:47 | 35.56277 | 117.53131 | 37147 ft | 476 kts | 174° |
| 2026-04-27 15:47 | 35.49909 | 117.55487 | 37155 ft | 481 kts | 175° |
| 2026-04-27 15:48 | 35.43502 | 117.57831 | 37149 ft | 482 kts | 175° |
| 2026-04-27 15:49 | 35.33995 | 117.61352 | 37151 ft | 472 kts | 174° |
| 2026-04-27 15:49 | 35.27687 | 117.63663 | 37151 ft | 477 kts | 174° |
| 2026-04-27 15:50 | 35.21359 | 117.65988 | 37150 ft | 470 kts | 175° |
| 2026-04-27 15:50 | 35.15122 | 117.68275 | 37148 ft | 471 kts | 175° |
| 2026-04-27 15:51 | 35.08795 | 117.70586 | 37146 ft | 474 kts | 175° |
| 2026-04-27 15:51 | 35.02505 | 117.72916 | 37148 ft | 469 kts | 174° |
| 2026-04-27 15:52 | 34.96299 | 117.75179 | 37143 ft | 469 kts | 175° |
| 2026-04-27 15:52 | 34.89996 | 117.77473 | 37142 ft | 470 kts | 175° |
| 2026-04-27 15:53 | 34.83753 | 117.79759 | 37142 ft | 470 kts | 174° |
| 2026-04-27 15:53 | 34.77502 | 117.82031 | 37137 ft | 472 kts | 174° |
| 2026-04-27 15:54 | 34.71236 | 117.84286 | 37134 ft | 468 kts | 175° |
| 2026-04-27 15:54 | 34.64957 | 117.86534 | 37133 ft | 470 kts | 175° |
| 2026-04-27 15:55 | 34.58675 | 117.88786 | 37132 ft | 471 kts | 174° |
| 2026-04-27 15:55 | 34.52454 | 117.91032 | 37130 ft | 466 kts | 174° |
| 2026-04-27 15:56 | 34.46231 | 117.93253 | 37128 ft | 467 kts | 174° |
| 2026-04-27 15:56 | 34.40012 | 117.95473 | 37124 ft | 466 kts | 174° |
| 2026-04-27 15:57 | 34.33777 | 117.97692 | 37125 ft | 467 kts | 174° |
| 2026-04-27 15:57 | 34.27584 | 117.99899 | 37124 ft | 467 kts | 174° |
| 2026-04-27 15:58 | 34.21351 | 118.02151 | 37116 ft | 467 kts | 173° |
| 2026-04-27 15:58 | 34.15152 | 118.04426 | 37117 ft | 462 kts | 174° |
| 2026-04-27 15:59 | 34.08959 | 118.06673 | 37114 ft | 468 kts | 173° |
| 2026-04-27 15:59 | 34.02730 | 118.08935 | 37113 ft | 469 kts | 174° |
| 2026-04-27 16:00 | 33.96535 | 118.11193 | 37114 ft | 466 kts | 173° |
| 2026-04-27 16:00 | 33.90290 | 118.13463 | 37110 ft | 469 kts | 173° |
| 2026-04-27 16:01 | 33.84065 | 118.15843 | 37109 ft | 472 kts | 168° |
| 2026-04-27 16:01 | 33.78089 | 118.19387 | 37111 ft | 488 kts | 156° |
| 2026-04-27 16:02 | 33.72488 | 118.24160 | 37001 ft | 498 kts | 149° |
| 2026-04-27 16:02 | 33.67175 | 118.29281 | 37240 ft | 478 kts | 150° |
| 2026-04-27 16:02 | 33.64444 | 118.31578 | 36977 ft | 483 kts | 155° |
| 2026-04-27 16:03 | 33.61624 | 118.33758 | 37169 ft | 484 kts | 155° |
| 2026-04-27 16:03 | 33.58734 | 118.35948 | 36813 ft | 497 kts | 155° |
| 2026-04-27 16:03 | 33.55833 | 118.38193 | 36859 ft | 493 kts | 154° |
| 2026-04-27 16:03 | 33.52969 | 118.40460 | 37097 ft | 492 kts | 154° |
| 2026-04-27 16:04 | 33.50132 | 118.42727 | 37124 ft | 497 kts | 153° |
| 2026-04-27 16:04 | 33.44392 | 118.47382 | 37119 ft | 493 kts | 153° |
| 2026-04-27 16:05 | 33.38731 | 118.52007 | 37124 ft | 495 kts | 153° |
| 2026-04-27 16:05 | 33.33056 | 118.56653 | 37117 ft | 494 kts | 152° |
| 2026-04-27 16:06 | 33.27377 | 118.61318 | 37121 ft | 493 kts | 152° |
| 2026-04-27 16:06 | 33.21699 | 118.65963 | 37116 ft | 494 kts | 153° |
| 2026-04-27 16:07 | 33.16077 | 118.70611 | 37117 ft | 491 kts | 152° |
| 2026-04-27 16:07 | 33.10399 | 118.75333 | 37115 ft | 496 kts | 152° |
| 2026-04-27 16:08 | 33.04720 | 118.80053 | 37109 ft | 494 kts | 152° |
| 2026-04-27 16:08 | 32.99094 | 118.84710 | 37112 ft | 495 kts | 152° |
| 2026-04-27 16:09 | 32.93418 | 118.89401 | 37110 ft | 491 kts | 152° |
| 2026-04-27 16:09 | 32.84943 | 118.96396 | 37101 ft | 492 kts | 152° |
| 2026-04-27 16:10 | 32.73709 | 119.05711 | 37094 ft | 492 kts | 151° |
| 2026-04-27 16:11 | 32.65331 | 119.12669 | 37089 ft | 491 kts | 151° |
| 2026-04-27 16:12 | 32.59737 | 119.17271 | 36961 ft | 492 kts | 152° |
| 2026-04-27 16:12 | 32.56908 | 119.19591 | 36643 ft | 491 kts | 151° |
| 2026-04-27 16:12 | 32.51354 | 119.24183 | 36039 ft | 484 kts | 151° |
| 2026-04-27 16:13 | 32.48621 | 119.26448 | 35742 ft | 483 kts | 152° |
| 2026-04-27 16:13 | 32.43044 | 119.31028 | 35139 ft | 488 kts | 152° |
| 2026-04-27 16:13 | 32.40251 | 119.33312 | 34840 ft | 489 kts | 152° |
| 2026-04-27 16:14 | 32.34702 | 119.37873 | 34234 ft | 483 kts | 152° |
| 2026-04-27 16:14 | 32.29133 | 119.42430 | 33642 ft | 488 kts | 152° |
| 2026-04-27 16:15 | 32.23573 | 119.46982 | 33079 ft | 483 kts | 152° |
| 2026-04-27 16:15 | 32.18070 | 119.51501 | 32542 ft | 479 kts | 152° |
| 2026-04-27 16:16 | 32.12651 | 119.55934 | 32018 ft | 475 kts | 152° |
| 2026-04-27 16:16 | 32.07211 | 119.60366 | 31483 ft | 472 kts | 152° |
| 2026-04-27 16:17 | 32.01845 | 119.64736 | 30723 ft | 465 kts | 152° |
| 2026-04-27 16:17 | 31.96585 | 119.69149 | 29523 ft | 463 kts | 147° |
| 2026-04-27 16:18 | 31.92064 | 119.74623 | 28264 ft | 470 kts | 133° |
| 2026-04-27 16:18 | 31.88310 | 119.80963 | 26973 ft | 469 kts | 128° |
| 2026-04-27 16:19 | 31.86523 | 119.84133 | 26326 ft | 467 kts | 128° |
| 2026-04-27 16:19 | 31.84738 | 119.87286 | 25682 ft | 465 kts | 128° |
| 2026-04-27 16:20 | 31.79404 | 119.96611 | 23790 ft | 457 kts | 129° |
| 2026-04-27 16:20 | 31.77637 | 119.99676 | 23149 ft | 455 kts | 129° |
| 2026-04-27 16:20 | 31.74105 | 120.05795 | 21903 ft | 449 kts | 128° |
| 2026-04-27 16:21 | 31.72351 | 120.08833 | 21270 ft | 447 kts | 128° |
| 2026-04-27 16:21 | 31.67185 | 120.17756 | 19381 ft | 438 kts | 127° |
| 2026-04-27 16:22 | 31.65487 | 120.20685 | 18753 ft | 435 kts | 127° |
| 2026-04-27 16:22 | 31.62107 | 120.26508 | 17512 ft | 428 kts | 127° |
| 2026-04-27 16:22 | 31.60459 | 120.29447 | 16882 ft | 426 kts | 123° |
| 2026-04-27 16:23 | 31.59062 | 120.32497 | 16444 ft | 418 kts | 117° |
| 2026-04-27 16:23 | 31.57013 | 120.38562 | 16358 ft | 383 kts | 111° |
| 2026-04-27 16:23 | 31.56132 | 120.41499 | 16280 ft | 370 kts | 111° |
| 2026-04-27 16:24 | 31.55296 | 120.44306 | 15856 ft | 367 kts | 111° |
| 2026-04-27 16:24 | 31.53601 | 120.49970 | 14739 ft | 370 kts | 111° |
| 2026-04-27 16:25 | 31.51897 | 120.55672 | 13651 ft | 369 kts | 111° |
| 2026-04-27 16:25 | 31.50211 | 120.61306 | 12580 ft | 366 kts | 111° |
| 2026-04-27 16:26 | 31.48535 | 120.66901 | 11485 ft | 363 kts | 111° |
| 2026-04-27 16:26 | 31.46877 | 120.72425 | 10470 ft | 356 kts | 111° |
| 2026-04-27 16:27 | 31.45320 | 120.77622 | 10054 ft | 314 kts | 112° |
| 2026-04-27 16:27 | 31.43190 | 120.84669 | 8911 ft | 302 kts | 111° |
| 2026-04-27 16:28 | 31.41802 | 120.89267 | 8167 ft | 297 kts | 111° |
| 2026-04-27 16:28 | 31.40435 | 120.93805 | 7422 ft | 293 kts | 108° |
| 2026-04-27 16:29 | 31.39674 | 121.00793 | 6316 ft | 287 kts | 92° |
| 2026-04-27 16:30 | 31.39384 | 121.05352 | 5599 ft | 277 kts | 92° |
| 2026-04-27 16:30 | 31.39082 | 121.09823 | 4895 ft | 274 kts | 92° |
| 2026-04-27 16:31 | 31.38645 | 121.16361 | 4133 ft | 257 kts | 91° |
| 2026-04-27 16:31 | 31.38362 | 121.20356 | 3979 ft | 234 kts | 91° |
| 2026-04-27 16:32 | 31.38281 | 121.24045 | 3610 ft | 228 kts | 85° |
| 2026-04-27 16:32 | 31.38309 | 121.25918 | 3333 ft | 228 kts | 85° |
| 2026-04-27 16:33 | 31.38311 | 121.29490 | 3116 ft | 208 kts | 90° |
| 2026-04-27 16:33 | 31.37983 | 121.31115 | 3008 ft | 200 kts | 116° |
| 2026-04-27 16:33 | 31.37044 | 121.32224 | 2912 ft | 192 kts | 153° |
| 2026-04-27 16:33 | 31.35750 | 121.32656 | 2566 ft | 196 kts | 173° |
| 2026-04-27 16:34 | 31.34361 | 121.32819 | 2036 ft | 208 kts | 177° |
| 2026-04-27 16:34 | 31.32946 | 121.32912 | 1763 ft | 189 kts | 178° |
| 2026-04-27 16:34 | 31.31748 | 121.32982 | 1772 ft | 166 kts | 178° |
| 2026-04-27 16:34 | 31.30615 | 121.33043 | 1786 ft | 162 kts | 178° |
| 2026-04-27 16:35 | 31.29450 | 121.33107 | 1672 ft | 173 kts | 178° |
| 2026-04-27 16:35 | 31.28255 | 121.33172 | 1361 ft | 168 kts | 179° |
| 2026-04-27 16:35 | 31.26044 | 121.33290 | 962 ft | 155 kts | 179° |
| 2026-04-27 16:36 | 31.24954 | 121.33337 | 743 ft | 154 kts | 178° |
| 2026-04-27 16:36 | 31.23900 | 121.33410 | 563 ft | 151 kts | 177° |
| 2026-04-27 16:36 | 31.22851 | 121.33475 | 351 ft | 150 kts | 178° |
| 2026-04-27 16:36 | 31.21806 | 121.33523 | 155 ft | 148 kts | 178° |
| 2026-04-27 16:37 | 31.20794 | 121.33575 | 15 ft | 140 kts | 178° |
| 2026-04-27 16:37 | 31.20056 | 121.33617 | 14 ft | 69 kts | 176° |
| 2026-04-27 16:37 | 31.19694 | 121.33636 | 14 ft | 47 kts | 178° |
| 2026-04-27 16:37 | 31.19399 | 121.33618 | 14 ft | 35 kts | 195° |
| 2026-04-27 16:38 | 31.19226 | 121.33533 | 14 ft | 24 kts | 205° |
| 2026-04-27 16:38 | 31.19121 | 121.33456 | 14 ft | 13 kts | 251° |
| 2026-04-27 16:38 | 31.19114 | 121.33354 | 14 ft | 12 kts | 268° |
| 2026-04-27 16:38 | 31.19109 | 121.33252 | 14 ft | 15 kts | 267° |
| 2026-04-27 16:39 | 31.19102 | 121.33093 | 14 ft | 11 kts | 268° |
| 2026-04-27 16:39 | 31.19102 | 121.33079 | 14 ft | 1 kts | 268° |
| 2026-04-27 16:39 | 31.19101 | 121.33063 | 14 ft | 2 kts | 268° |
| 2026-04-27 16:39 | 31.19105 | 121.33028 | 14 ft | 11 kts | 295° |
| 2026-04-27 16:40 | 31.19160 | 121.33009 | 14 ft | 4 kts | 353° |
| 2026-04-27 16:40 | 31.19194 | 121.33005 | 14 ft | 6 kts | 354° |
| 2026-04-27 16:40 | 31.19287 | 121.32997 | 14 ft | 16 kts | 359° |
| 2026-04-27 16:40 | 31.19385 | 121.32993 | 14 ft | 13 kts | 357° |
| 2026-04-27 16:41 | 31.19474 | 121.32987 | 14 ft | 12 kts | 356° |
| 2026-04-27 16:41 | 31.19557 | 121.32981 | 14 ft | 11 kts | 342° |
| 2026-04-27 16:41 | 31.19580 | 121.32912 | 14 ft | 9 kts | 265° |
| 2026-04-27 16:41 | 31.19577 | 121.32838 | 14 ft | 8 kts | 268° |
| 2026-04-27 16:42 | 31.19574 | 121.32760 | 14 ft | 9 kts | 268° |
| 2026-04-27 16:42 | 31.19578 | 121.32687 | 14 ft | 7 kts | 295° |
| 2026-04-27 16:42 | 31.19588 | 121.32668 | 14 ft | 5 kts | 301° |
| 2026-04-27 16:42 | 31.19597 | 121.32616 | 14 ft | 6 kts | 265° |
| 2026-04-27 16:43 | 31.19594 | 121.32568 | 14 ft | 4 kts | 269° |
| 2026-04-27 16:43 | 31.19594 | 121.32558 | 14 ft | 1 kts | 269° |
| 2026-04-27 16:43 | 31.19594 | 121.32542 | 14 ft | 2 kts | 268° |
| 2026-04-27 16:43 | 31.19593 | 121.32533 | 14 ft | 0 kts | 268° |